Grand Marais, MN (55604)

9:50 AM CDT on August 30, 2015 (GMT -0500)
SundewTech | | Change Station
CLOSE
Current Station
Personal Weather Station
Location: Grand Marais, MN
Elevation: 676 ft
Nearby Weather Stations

Elev 676 ft 47.75 °N, 90.34 °W | Updated 13 seconds ago

Mostly Cloudy
Mostly Cloudy
63.1 °F
Feels Like 63.1 °F
N
0.0
Wind Variable Wind from SSW
Gusts 0.0 mph

Today
High -- | Low -- °F
--% Chance of Precip.
Yesterday
High -- | Low -- °F
Precip. -- in
6:16 AM 7:46 PM
Full, 99% visible
Pressure 29.94 in
Visibility 7.0 miles
Clouds Overcast 400 ft
Dew Point 60 °F
Humidity 88%
Rainfall 0.00 in
Snow Depth Not available.
UV 1 out of 12
Pollen 10.10 out of 12
Air Quality Not available.
Flu Activity Not available.
METAR KCKC 301433Z AUTO 19004KT 7SM OVC004 17/14 A2994 RMK AO2
Pressure 29.94 in
Visibility 7.0 miles
Clouds Overcast 400 ft
Dew Point 60 °F
Humidity 88%
Rainfall 0.00 in
Snow Depth Not available.
UV 1 out of 12
Pollen 10.10 out of 12
Air Quality Not available.
Flu Activity Not available.
METAR KCKC 301433Z AUTO 19004KT 7SM OVC004 17/14 A2994 RMK AO2

10-Day Weather Forecast

×

Almanac

Astronomy

Aug. 30, 2015 Rise Set
Actual Time
Civil Twilight
Nautical Twilight
Astronomical Twilight
Moon
Length of Visible Light
Length of Day
Tomorrow will be .
, % of the Moon is Illuminated

Today's Extremes

State Highs State Lows

Community

WunderPhotos

Upload Photos

1,850,974 photos uploaded!

WunderBlogs® & News

Nearby

Air Quality

  Air Quality AQ Index Pollutant
Not available.

Snow Depth

Station Depth Elevation

Earthquake Activity

City Distance Mag. Time & Date
Minimum magnitude displayed is 2.5.

Coastal Water Temperatures

Place Temperature

Stations

Nearby Weather Stations

Station Location Temp. Windchill Dew Point Humidity Wind Precip. Elev Updated Type